Time;durP1;ratioP1;P1;durP2;ratioP2;P2;SDS_P1;SDS_P2;PMS_P1;PMS_P2;Temp;Humidity;BMP_temperature;BMP_pressure;BME280_temperature;BME280_humidity;BME280_pressure;Samples;Min_cycle;Max_cycle;Signal;HPM_P1;HPM_P2
2024/03/15 00:00:17;;;;;;;;;;;19.70;61.80;;;;;;5114908;28;19908;-71
2024/03/15 00:02:45;;;;;;;;;;;19.90;61.00;;;;;;5114581;28;19973;-71
2024/03/15 00:05:11;;;;;;;;;;;19.70;61.40;;;;;;5114826;28;19912;-71
2024/03/15 00:07:36;;;;;;;;;;;19.70;61.40;;;;;;5114870;28;19915;-71
2024/03/15 00:10:02;;;;;;;;;;;19.80;61.60;;;;;;5114843;28;20354;-71
2024/03/15 00:12:28;;;;;;;;;;;19.70;61.40;;;;;;5114644;28;19922;-71
2024/03/15 00:14:55;;;;;;;;;;;19.70;61.30;;;;;;5114633;28;20426;-71
2024/03/15 00:17:20;;;;;;;;;;;19.70;61.50;;;;;;5114604;28;19963;-71
2024/03/15 00:19:46;;;;;;;;;;;19.80;61.60;;;;;;5114649;28;19936;-71
2024/03/15 00:22:11;;;;;;;;;;;19.80;61.80;;;;;;5114510;28;20437;-71
2024/03/15 00:24:37;;;;;;;;;;;19.70;61.50;;;;;;5115077;28;19908;-71
2024/03/15 00:27:02;;;;;;;;;;;19.70;61.80;;;;;;5114769;28;19908;-71
2024/03/15 00:29:28;;;;;;;;;;;19.80;61.70;;;;;;5114270;28;19965;-71
2024/03/15 00:31:56;;;;;;;;;;;19.80;61.90;;;;;;5114209;28;20471;-71
2024/03/15 00:34:22;;;;;;;;;;;19.70;61.90;;;;;;5114309;28;19908;-71
2024/03/15 00:36:48;;;;;;;;;;;19.70;62.00;;;;;;5114358;28;20447;-71
2024/03/15 00:39:14;;;;;;;;;;;19.70;61.90;;;;;;5114248;28;19911;-71
2024/03/15 00:41:40;;;;;;;;;;;19.80;61.70;;;;;;5114213;28;20290;-71
2024/03/15 00:44:06;;;;;;;;;;;19.80;61.80;;;;;;5114019;28;19908;-71
2024/03/15 00:46:32;;;;;;;;;;;19.80;61.90;;;;;;5114036;28;19908;-71
2024/03/15 00:48:57;;;;;;;;;;;19.80;62.00;;;;;;5114037;28;19908;-71
2024/03/15 00:51:23;;;;;;;;;;;19.70;62.00;;;;;;5113804;28;19916;-71
2024/03/15 00:53:50;;;;;;;;;;;19.80;61.70;;;;;;5114306;28;19908;-71
2024/03/15 00:56:16;;;;;;;;;;;19.80;61.70;;;;;;5113789;28;19908;-71
2024/03/15 00:58:41;;;;;;;;;;;19.80;61.90;;;;;;5113767;28;19908;-71
2024/03/15 01:01:07;;;;;;;;;;;20.00;61.50;;;;;;5113667;28;19911;-71
2024/03/15 01:03:32;;;;;;;;;;;19.80;62.00;;;;;;5113543;28;19973;-71
2024/03/15 01:06:01;;;;;;;;;;;19.80;61.70;;;;;;5113771;28;20346;-71
2024/03/15 01:08:26;;;;;;;;;;;19.80;59.50;;;;;;5113458;28;19998;-71
2024/03/15 01:10:52;;;;;;;;;;;19.80;61.70;;;;;;5113759;28;19966;-71
2024/03/15 01:13:18;;;;;;;;;;;19.80;61.80;;;;;;5113599;28;19957;-71
2024/03/15 01:15:44;;;;;;;;;;;19.80;61.90;;;;;;5113484;28;20396;-71
2024/03/15 01:18:10;;;;;;;;;;;19.80;61.90;;;;;;5113625;28;19912;-71
2024/03/15 01:20:35;;;;;;;;;;;19.80;61.70;;;;;;5113325;28;19915;-71
2024/03/15 01:23:02;;;;;;;;;;;19.80;61.70;;;;;;5113359;28;20002;-71
2024/03/15 01:25:28;;;;;;;;;;;19.80;61.80;;;;;;5113248;28;19908;-71
2024/03/15 01:27:53;;;;;;;;;;;19.80;61.70;;;;;;5113197;28;19907;-71
2024/03/15 01:30:19;;;;;;;;;;;19.80;61.60;;;;;;5113158;28;19907;-71
2024/03/15 01:32:45;;;;;;;;;;;19.80;61.80;;;;;;5113210;28;19968;-71
2024/03/15 01:35:10;;;;;;;;;;;19.80;61.60;;;;;;5113100;28;20011;-71
2024/03/15 01:37:36;;;;;;;;;;;19.90;61.80;;;;;;5113306;28;20273;-71
2024/03/15 01:40:03;;;;;;;;;;;19.90;61.50;;;;;;5113494;28;20013;-71
2024/03/15 01:42:29;;;;;;;;;;;19.80;61.50;;;;;;5112444;28;19907;-71
2024/03/15 01:44:56;;;;;;;;;;;19.80;61.90;;;;;;5112866;28;19908;-71
2024/03/15 01:47:25;;;;;;;;;;;19.80;61.80;;;;;;5113245;28;19915;-71
2024/03/15 01:49:53;;;;;;;;;;;19.80;61.90;;;;;;5113146;28;19949;-71
2024/03/15 01:52:20;;;;;;;;;;;19.80;61.90;;;;;;5113176;28;19916;-71
2024/03/15 01:54:46;;;;;;;;;;;19.80;61.80;;;;;;5112848;28;19954;-71
2024/03/15 01:57:17;;;;;;;;;;;19.80;61.70;;;;;;5112910;28;19908;-71
2024/03/15 01:59:43;;;;;;;;;;;19.80;58.90;;;;;;5113207;28;20304;-71
2024/03/15 02:02:10;;;;;;;;;;;19.90;61.70;;;;;;5112879;28;19928;-71
2024/03/15 02:04:36;;;;;;;;;;;19.80;61.50;;;;;;5113152;28;19907;-71
2024/03/15 02:07:03;;;;;;;;;;;19.80;61.80;;;;;;5113180;28;20382;-71
2024/03/15 02:09:30;;;;;;;;;;;19.80;61.70;;;;;;5113149;28;19915;-71
2024/03/15 02:11:56;;;;;;;;;;;19.80;61.80;;;;;;5112792;28;20010;-71
2024/03/15 02:14:22;;;;;;;;;;;19.80;61.90;;;;;;5113022;28;19908;-71
2024/03/15 02:16:48;;;;;;;;;;;19.80;61.90;;;;;;5113058;28;20398;-71
2024/03/15 02:19:14;;;;;;;;;;;19.90;61.70;;;;;;5113073;28;19908;-71
2024/03/15 02:21:40;;;;;;;;;;;19.80;61.60;;;;;;5113006;28;20358;-71
2024/03/15 02:24:06;;;;;;;;;;;19.80;61.60;;;;;;5112898;28;20259;-71
2024/03/15 02:26:33;;;;;;;;;;;19.80;61.60;;;;;;5113268;28;19954;-72
2024/03/15 02:28:59;;;;;;;;;;;19.80;61.80;;;;;;5112607;28;19915;-72
2024/03/15 02:31:25;;;;;;;;;;;19.80;61.40;;;;;;5112836;28;19915;-71
2024/03/15 02:33:51;;;;;;;;;;;19.80;61.50;;;;;;5112824;28;19911;-71
2024/03/15 02:36:17;;;;;;;;;;;19.90;61.70;;;;;;5112545;28;19914;-71
2024/03/15 02:38:43;;;;;;;;;;;19.80;61.70;;;;;;5112648;28;19999;-71
2024/03/15 02:41:13;;;;;;;;;;;19.80;61.60;;;;;;5112490;28;19908;-71
2024/03/15 02:43:39;;;;;;;;;;;19.80;59.20;;;;;;5112840;28;19998;-71
2024/03/15 02:46:05;;;;;;;;;;;19.80;61.30;;;;;;5112715;28;19998;-71
2024/03/15 02:48:38;;;;;;;;;;;19.80;61.60;;;;;;5112799;28;19915;-71
2024/03/15 02:51:07;;;;;;;;;;;19.80;58.70;;;;;;5112575;28;19926;-71
2024/03/15 02:53:33;;;;;;;;;;;19.80;61.80;;;;;;5113626;28;19947;-71
2024/03/15 02:56:00;;;;;;;;;;;19.80;61.80;;;;;;5117148;28;19915;-71
2024/03/15 02:58:27;;;;;;;;;;;19.80;61.60;;;;;;5116552;28;20324;-71
2024/03/15 03:00:54;;;;;;;;;;;19.80;62.00;;;;;;5116094;28;19907;-71
2024/03/15 03:03:20;;;;;;;;;;;19.80;61.20;;;;;;5116035;28;19919;-71
2024/03/15 03:05:46;;;;;;;;;;;19.80;61.80;;;;;;5116414;28;20278;-71
2024/03/15 03:08:12;;;;;;;;;;;19.80;61.60;;;;;;5116338;28;19950;-71
2024/03/15 03:10:38;;;;;;;;;;;19.80;61.70;;;;;;5116364;28;19907;-71
2024/03/15 03:13:04;;;;;;;;;;;19.70;61.60;;;;;;5116039;28;19916;-71
2024/03/15 03:15:30;;;;;;;;;;;19.80;61.70;;;;;;5115875;28;20285;-71
2024/03/15 03:17:56;;;;;;;;;;;19.80;61.90;;;;;;5115832;28;19908;-71
2024/03/15 03:20:23;;;;;;;;;;;19.80;61.80;;;;;;5115823;28;19944;-71
2024/03/15 03:22:56;;;;;;;;;;;18.50;61.20;;;;;;5115856;28;19908;-71
2024/03/15 03:25:24;;;;;;;;;;;19.80;58.30;;;;;;5116055;28;19908;-71
2024/03/15 03:27:49;;;;;;;;;;;19.80;61.80;;;;;;5115665;28;19908;-71
2024/03/15 03:30:15;;;;;;;;;;;19.70;61.80;;;;;;5115674;28;19908;-71
2024/03/15 03:32:41;;;;;;;;;;;19.70;61.60;;;;;;5115512;28;19955;-71
2024/03/15 03:35:07;;;;;;;;;;;19.70;61.50;;;;;;5115515;28;19960;-71
2024/03/15 03:37:32;;;;;;;;;;;19.80;61.70;;;;;;5115610;28;20006;-71
2024/03/15 03:39:58;;;;;;;;;;;19.70;62.40;;;;;;5115457;28;20309;-71
2024/03/15 03:42:27;;;;;;;;;;;19.40;61.90;;;;;;5115387;28;20400;-71
2024/03/15 03:44:57;;;;;;;;;;;19.70;58.80;;;;;;5115427;28;19965;-71
2024/03/15 03:47:23;;;;;;;;;;;19.70;61.40;;;;;;5115568;28;19915;-71
2024/03/15 03:49:50;;;;;;;;;;;19.70;61.60;;;;;;5115352;28;19908;-71
2024/03/15 03:52:16;;;;;;;;;;;19.80;61.40;;;;;;5115739;28;20014;-71
2024/03/15 03:54:43;;;;;;;;;;;19.70;61.90;;;;;;5115285;28;20366;-71
2024/03/15 03:57:23;;;;;;;;;;;19.70;61.90;;;;;;5115153;28;20358;-71
2024/03/15 03:59:49;;;;;;;;;;;19.70;58.80;;;;;;5115074;28;19908;-71
2024/03/15 04:02:14;;;;;;;;;;;19.80;61.20;;;;;;5114744;28;19943;-71
2024/03/15 04:04:42;;;;;;;;;;;19.70;61.70;;;;;;5114360;28;19982;-71
2024/03/15 04:07:10;;;;;;;;;;;19.70;61.80;;;;;;5114888;28;19908;-71
2024/03/15 04:09:36;;;;;;;;;;;19.70;61.90;;;;;;5114940;28;20486;-70
2024/03/15 04:12:01;;;;;;;;;;;19.70;61.90;;;;;;5096368;28;20011;-71
2024/03/15 04:14:27;;;;;;;;;;;19.70;61.80;;;;;;5114718;28;19943;-72
2024/03/15 04:16:54;;;;;;;;;;;19.70;61.90;;;;;;5114654;28;19947;-71
2024/03/15 04:19:20;;;;;;;;;;;19.60;61.80;;;;;;5114628;28;20392;-72
2024/03/15 04:21:45;;;;;;;;;;;19.60;62.00;;;;;;5115485;28;19995;-72
2024/03/15 04:24:11;;;;;;;;;;;19.70;62.20;;;;;;5114623;28;19919;-71
2024/03/15 04:26:37;;;;;;;;;;;19.70;62.20;;;;;;5114408;28;20319;-71
2024/03/15 04:29:02;;;;;;;;;;;19.70;62.00;;;;;;5114576;28;19915;-71
2024/03/15 04:31:30;;;;;;;;;;;19.70;62.20;;;;;;5114406;28;20279;-70
2024/03/15 04:33:56;;;;;;;;;;;19.70;59.80;;;;;;5114558;28;19907;-71
2024/03/15 04:36:24;;;;;;;;;;;19.60;62.30;;;;;;5114338;28;20359;-71
2024/03/15 04:38:53;;;;;;;;;;;19.60;62.20;;;;;;5114404;28;19908;-71
2024/03/15 04:41:22;;;;;;;;;;;19.60;59.20;;;;;;5114297;28;19949;-71
2024/03/15 04:43:49;;;;;;;;;;;19.70;62.20;;;;;;5114377;28;19912;-71
2024/03/15 04:46:16;;;;;;;;;;;19.70;62.30;;;;;;5114160;28;19930;-71
2024/03/15 04:48:43;;;;;;;;;;;19.70;61.80;;;;;;5114721;28;19919;-71
2024/03/15 04:51:08;;;;;;;;;;;19.60;62.00;;;;;;5114376;28;19914;-71
2024/03/15 04:53:34;;;;;;;;;;;19.60;62.10;;;;;;5114089;28;20353;-71
2024/03/15 04:55:59;;;;;;;;;;;19.60;62.10;;;;;;5114071;28;19908;-71
2024/03/15 04:58:28;;;;;;;;;;;19.70;62.30;;;;;;5113945;28;19908;-71
2024/03/15 05:00:54;;;;;;;;;;;19.60;62.30;;;;;;5114094;28;19908;-71
2024/03/15 05:03:19;;;;;;;;;;;19.70;61.50;;;;;;5113719;28;19924;-71
2024/03/15 05:05:44;;;;;;;;;;;19.60;62.50;;;;;;5113828;28;19954;-71
2024/03/15 05:08:10;;;;;;;;;;;19.70;62.20;;;;;;5113816;28;19912;-71
2024/03/15 05:10:36;;;;;;;;;;;19.70;62.20;;;;;;5113695;28;20488;-71
2024/03/15 05:13:02;;;;;;;;;;;19.70;62.20;;;;;;5113734;28;20011;-71
2024/03/15 05:15:28;;;;;;;;;;;19.70;62.10;;;;;;5113620;28;19914;-71
2024/03/15 05:17:53;;;;;;;;;;;19.70;61.30;;;;;;5114077;28;19908;-71
2024/03/15 05:20:19;;;;;;;;;;;19.70;62.30;;;;;;5113832;28;20322;-71
2024/03/15 05:22:44;;;;;;;;;;;19.60;62.20;;;;;;5113459;28;19969;-71
2024/03/15 05:25:10;;;;;;;;;;;19.70;62.20;;;;;;5113467;28;20010;-71
2024/03/15 05:27:36;;;;;;;;;;;19.60;62.20;;;;;;5113676;28;20006;-71
2024/03/15 05:30:03;;;;;;;;;;;19.60;62.00;;;;;;5113472;28;19950;-71
2024/03/15 05:32:29;;;;;;;;;;;19.60;61.90;;;;;;5113253;28;19961;-71
2024/03/15 05:34:54;;;;;;;;;;;19.60;62.30;;;;;;5113374;28;20332;-71
2024/03/15 05:37:20;;;;;;;;;;;19.60;62.30;;;;;;5113277;28;19907;-71
2024/03/15 05:39:46;;;;;;;;;;;19.60;62.40;;;;;;5113156;28;19907;-71
2024/03/15 05:42:12;;;;;;;;;;;19.60;62.00;;;;;;5113142;28;19960;-71
2024/03/15 05:44:37;;;;;;;;;;;19.60;62.40;;;;;;5113182;28;20004;-71
2024/03/15 05:47:03;;;;;;;;;;;19.70;61.60;;;;;;5113564;28;19908;-71
2024/03/15 05:49:28;;;;;;;;;;;19.50;62.20;;;;;;5113073;28;19907;-71
2024/03/15 05:51:54;;;;;;;;;;;19.60;62.10;;;;;;5113186;28;19977;-71
2024/03/15 05:54:19;;;;;;;;;;;19.60;62.20;;;;;;5113079;28;19908;-71
2024/03/15 05:56:45;;;;;;;;;;;19.50;62.40;;;;;;5112925;28;20394;-71
2024/03/15 05:59:11;;;;;;;;;;;19.60;62.20;;;;;;5113059;28;19912;-71
2024/03/15 06:01:39;;;;;;;;;;;19.60;61.70;;;;;;5112922;28;20284;-71
2024/03/15 06:04:05;;;;;;;;;;;19.60;61.80;;;;;;5113062;28;19908;-71
2024/03/15 06:06:33;;;;;;;;;;;19.60;62.40;;;;;;5113082;28;20297;-71
2024/03/15 06:09:00;;;;;;;;;;;19.60;62.20;;;;;;5112591;28;20470;-70
2024/03/15 06:11:27;;;;;;;;;;;19.50;62.00;;;;;;5112523;28;19911;-71
2024/03/15 06:13:53;;;;;;;;;;;19.60;62.30;;;;;;5113105;28;19908;-71
2024/03/15 06:16:25;;;;;;;;;;;19.50;62.10;;;;;;5112905;28;19908;-71
2024/03/15 06:18:51;;;;;;;;;;;19.60;62.20;;;;;;5112574;28;19964;-70
2024/03/15 06:21:17;;;;;;;;;;;19.60;62.20;;;;;;5112663;28;19908;-73
2024/03/15 06:23:43;;;;;;;;;;;19.60;62.30;;;;;;5116603;28;20377;-71
2024/03/15 06:26:09;;;;;;;;;;;19.60;62.00;;;;;;5113053;28;19915;-70
2024/03/15 06:28:36;;;;;;;;;;;19.60;62.20;;;;;;5113929;28;19908;-69
2024/03/15 06:31:02;;;;;;;;;;;19.60;62.30;;;;;;5116616;28;19908;-70
2024/03/15 06:33:33;;;;;;;;;;;19.60;62.00;;;;;;5116806;28;19911;-70
2024/03/15 06:36:00;;;;;;;;;;;19.60;62.60;;;;;;5123475;28;19908;-71
2024/03/15 06:38:51;;;;;;;;;;;19.60;62.50;;;;;;5116618;28;20366;-70
2024/03/15 06:46:53;;;;;;;;;;;19.60;61.40;;;;;;5116818;28;19915;-70
2024/03/15 06:49:24;;;;;;;;;;;19.60;60.40;;;;;;5116399;28;20331;-72
2024/03/15 06:54:34;;;;;;;;;;;19.60;62.60;;;;;;5116532;28;20054;-70
2024/03/15 06:56:59;;;;;;;;;;;19.60;62.50;;;;;;5116321;28;19993;-70
2024/03/15 06:59:25;;;;;;;;;;;19.60;62.40;;;;;;5116212;28;20333;-70
2024/03/15 07:01:52;;;;;;;;;;;19.70;61.90;;;;;;5115966;28;19955;-70
2024/03/15 07:04:18;;;;;;;;;;;19.60;62.10;;;;;;5116154;28;19930;-70
2024/03/15 07:06:44;;;;;;;;;;;19.60;62.30;;;;;;5116055;28;19999;-70
2024/03/15 07:09:14;;;;;;;;;;;19.50;62.40;;;;;;5116218;28;19935;-70
2024/03/15 07:11:41;;;;;;;;;;;19.60;62.30;;;;;;5116505;28;19938;-70
2024/03/15 07:14:09;;;;;;;;;;;19.60;62.30;;;;;;5115894;28;19908;-69
2024/03/15 07:16:35;;;;;;;;;;;19.60;60.80;;;;;;5115758;28;20396;-70
2024/03/15 07:19:01;;;;;;;;;;;19.50;62.00;;;;;;5115656;28;20006;-71
2024/03/15 07:21:27;;;;;;;;;;;19.60;62.10;;;;;;5115810;28;19908;-70
2024/03/15 07:23:52;;;;;;;;;;;19.70;61.90;;;;;;5115894;28;19915;-71
2024/03/15 07:26:18;;;;;;;;;;;19.60;62.30;;;;;;5117658;28;19908;-69
2024/03/15 07:28:44;;;;;;;;;;;19.60;62.20;;;;;;5116093;28;19946;-72
2024/03/15 07:31:10;;;;;;;;;;;19.60;62.40;;;;;;5115494;28;20007;-69
2024/03/15 07:33:37;;;;;;;;;;;19.60;62.60;;;;;;5115619;28;20006;-72
2024/03/15 07:36:07;;;;;;;;;;;19.60;62.60;;;;;;5115436;28;19908;-71
2024/03/15 07:38:36;;;;;;;;;;;19.60;61.90;;;;;;5122335;28;19908;-72
2024/03/15 07:41:02;;;;;;;;;;;19.60;59.60;;;;;;5114599;28;19914;-71
2024/03/15 07:43:28;;;;;;;;;;;19.60;62.60;;;;;;5115333;28;19907;-72
2024/03/15 07:45:54;;;;;;;;;;;19.60;62.60;;;;;;5115288;28;19908;-70
2024/03/15 07:48:20;;;;;;;;;;;19.60;62.50;;;;;;5115468;28;20285;-71
2024/03/15 07:50:46;;;;;;;;;;;19.60;62.60;;;;;;5115406;28;19915;-70
2024/03/15 07:53:14;;;;;;;;;;;19.60;62.90;;;;;;5115008;28;19916;-70
2024/03/15 07:55:40;;;;;;;;;;;19.60;62.70;;;;;;5115145;28;19912;-70
2024/03/15 07:58:06;;;;;;;;;;;19.60;62.50;;;;;;5115094;28;19934;-71
2024/03/15 08:00:31;;;;;;;;;;;19.60;62.60;;;;;;5115349;28;19908;-70
2024/03/15 08:02:57;;;;;;;;;;;19.70;62.30;;;;;;5114768;28;19920;-70
2024/03/15 08:05:26;;;;;;;;;;;19.60;62.70;;;;;;5114869;28;19951;-70
2024/03/15 08:07:52;;;;;;;;;;;19.60;62.80;;;;;;5115286;28;20434;-70
2024/03/15 08:10:18;;;;;;;;;;;20.00;63.00;;;;;;5115080;28;19908;-70
2024/03/15 08:12:44;;;;;;;;;;;19.60;62.50;;;;;;5114679;28;20338;-70
2024/03/15 08:15:10;;;;;;;;;;;19.60;62.50;;;;;;5114651;28;19919;-70
2024/03/15 08:17:36;;;;;;;;;;;19.20;62.50;;;;;;5114895;28;19907;-70
2024/03/15 08:20:05;;;;;;;;;;;19.60;62.80;;;;;;5114917;28;19908;-70
2024/03/15 08:22:33;;;;;;;;;;;19.60;62.10;;;;;;5114498;28;20362;-70
2024/03/15 08:24:59;;;;;;;;;;;19.20;62.60;;;;;;5114467;28;19908;-70
2024/03/15 08:27:29;;;;;;;;;;;19.60;62.70;;;;;;5114766;28;20045;-70
2024/03/15 08:29:56;;;;;;;;;;;19.60;62.60;;;;;;5114620;28;19915;-70
2024/03/15 08:32:25;;;;;;;;;;;19.60;63.00;;;;;;5114192;28;19951;-70
2024/03/15 08:34:51;;;;;;;;;;;19.30;59.50;;;;;;5114575;28;19915;-71
2024/03/15 08:37:17;;;;;;;;;;;19.60;62.70;;;;;;5114938;28;19908;-71
2024/03/15 08:39:44;;;;;;;;;;;19.40;62.20;;;;;;5114375;28;19907;-70
2024/03/15 08:42:11;;;;;;;;;;;19.60;62.60;;;;;;5113934;28;19998;-70
2024/03/15 08:44:38;;;;;;;;;;;19.80;62.80;;;;;;5114284;28;19907;-70
2024/03/15 08:47:07;;;;;;;;;;;19.60;62.70;;;;;;5114356;28;19915;-70
2024/03/15 08:49:33;;;;;;;;;;;19.60;62.00;;;;;;5114022;28;19995;-70
2024/03/15 08:51:59;;;;;;;;;;;19.70;62.70;;;;;;5113801;28;19973;-70
2024/03/15 08:54:24;;;;;;;;;;;19.70;62.70;;;;;;5114041;28;20331;-70
2024/03/15 08:56:50;;;;;;;;;;;19.70;62.60;;;;;;5114078;28;19935;-70
2024/03/15 08:59:19;;;;;;;;;;;19.70;62.80;;;;;;5113646;28;19915;-70
2024/03/15 09:01:45;;;;;;;;;;;19.80;62.10;;;;;;5113702;28;20290;-70
2024/03/15 09:04:12;;;;;;;;;;;19.80;62.70;;;;;;5113844;28;19911;-70
2024/03/15 09:06:38;;;;;;;;;;;19.70;62.60;;;;;;5114000;28;19920;-70
2024/03/15 09:09:12;;;;;;;;;;;19.80;62.90;;;;;;5113886;28;20132;-70
2024/03/15 09:11:53;;;;;;;;;;;19.80;62.70;;;;;;5111521;28;20366;-70
2024/03/15 09:14:19;;;;;;;;;;;19.80;62.40;;;;;;5113787;28;20002;-70
2024/03/15 09:16:45;;;;;;;;;;;19.90;63.10;;;;;;5113774;28;19907;-71
2024/03/15 09:19:11;;;;;;;;;;;19.90;62.70;;;;;;5113711;28;20358;-70
2024/03/15 09:21:40;;;;;;;;;;;19.90;62.60;;;;;;5113688;28;20347;-70
2024/03/15 09:24:07;;;;;;;;;;;19.90;62.50;;;;;;5113470;28;19914;-70
2024/03/15 09:26:33;;;;;;;;;;;20.00;61.70;;;;;;5113203;28;19960;-70
2024/03/15 09:28:59;;;;;;;;;;;20.00;62.30;;;;;;5113151;28;19907;-70
2024/03/15 09:31:24;;;;;;;;;;;20.00;62.30;;;;;;5113055;28;19965;-71
2024/03/15 09:33:51;;;;;;;;;;;20.00;62.80;;;;;;5113676;28;19908;-70
2024/03/15 09:36:17;;;;;;;;;;;20.00;62.60;;;;;;5113264;28;19998;-69
2024/03/15 09:38:46;;;;;;;;;;;20.00;62.40;;;;;;5113119;28;20003;-69
2024/03/15 09:41:15;;;;;;;;;;;20.00;62.10;;;;;;5113140;28;19908;-69
2024/03/15 09:43:40;;;;;;;;;;;20.00;62.50;;;;;;5112976;28;19933;-70
2024/03/15 09:46:12;;;;;;;;;;;20.00;62.60;;;;;;5113006;28;19911;-70
2024/03/15 09:48:40;;;;;;;;;;;20.10;62.70;;;;;;5112990;28;20390;-69
2024/03/15 09:51:08;;;;;;;;;;;20.60;62.80;;;;;;5112936;28;19954;-69
2024/03/15 09:53:34;;;;;;;;;;;20.10;62.80;;;;;;5112666;28;20374;-70
2024/03/15 09:56:01;;;;;;;;;;;20.10;62.60;;;;;;5112682;28;19947;-70
2024/03/15 09:58:26;;;;;;;;;;;20.10;62.50;;;;;;5112788;28;19908;-74
2024/03/15 10:00:52;;;;;;;;;;;20.10;62.40;;;;;;5112720;28;19915;-69
2024/03/15 10:03:18;;;;;;;;;;;20.10;62.20;;;;;;5112115;28;19966;-69
2024/03/15 10:05:43;;;;;;;;;;;20.10;62.60;;;;;;5112676;28;19907;-69
2024/03/15 10:08:15;;;;;;;;;;;20.10;62.60;;;;;;5113031;28;19908;-69
2024/03/15 10:10:41;;;;;;;;;;;20.10;62.60;;;;;;5112806;28;19912;-69
2024/03/15 10:13:08;;;;;;;;;;;20.10;62.80;;;;;;5112570;28;19916;-69
2024/03/15 10:15:42;;;;;;;;;;;20.20;62.10;;;;;;5113025;28;19953;-69
2024/03/15 10:18:10;;;;;;;;;;;20.10;62.40;;;;;;5112454;28;19908;-69
2024/03/15 10:20:36;;;;;;;;;;;20.10;62.50;;;;;;5112793;28;20345;-69
2024/03/15 10:23:02;;;;;;;;;;;20.10;62.30;;;;;;5112465;28;19979;-69
2024/03/15 10:25:34;;;;;;;;;;;20.10;62.10;;;;;;5112411;28;19908;-69
2024/03/15 10:27:59;;;;;;;;;;;20.10;62.40;;;;;;5119243;28;19908;-69
2024/03/15 10:30:27;;;;;;;;;;;20.10;62.40;;;;;;5112997;28;19915;-69
2024/03/15 10:32:54;;;;;;;;;;;20.10;62.40;;;;;;5112368;28;20268;-69
2024/03/15 10:35:20;;;;;;;;;;;20.10;62.70;;;;;;5112509;28;19915;-69
2024/03/15 10:37:47;;;;;;;;;;;20.10;62.30;;;;;;5112368;28;20298;-69
2024/03/15 10:40:17;;;;;;;;;;;20.10;62.30;;;;;;5112637;28;19915;-69
2024/03/15 10:42:43;;;;;;;;;;;20.30;62.00;;;;;;5112477;28;19915;-69
2024/03/15 10:45:12;;;;;;;;;;;20.10;62.30;;;;;;5112339;28;20022;-69
2024/03/15 10:47:38;;;;;;;;;;;20.10;59.50;;;;;;5112261;28;19930;-69
2024/03/15 10:50:05;;;;;;;;;;;20.10;62.50;;;;;;5112159;28;20381;-69
2024/03/15 10:52:31;;;;;;;;;;;20.10;62.40;;;;;;5112152;28;19930;-69
2024/03/15 10:54:58;;;;;;;;;;;20.10;62.50;;;;;;5112124;28;19908;-69
2024/03/15 10:57:24;;;;;;;;;;;20.20;62.40;;;;;;5112232;28;19908;-69
2024/03/15 10:59:50;;;;;;;;;;;20.10;62.30;;;;;;5112659;28;19954;-69
2024/03/15 11:02:15;;;;;;;;;;;20.30;62.00;;;;;;5111856;28;19951;-69
2024/03/15 11:04:42;;;;;;;;;;;20.20;62.20;;;;;;5112304;28;19939;-70
2024/03/15 11:07:08;;;;;;;;;;;20.20;62.00;;;;;;5112372;28;20254;-69
2024/03/15 11:09:35;;;;;;;;;;;20.30;62.20;;;;;;5112162;28;19946;-69
2024/03/15 11:12:02;;;;;;;;;;;20.30;62.00;;;;;;5112055;28;19998;-69
2024/03/15 11:14:34;;;;;;;;;;;20.30;62.00;;;;;;5113351;28;19937;-70
2024/03/15 11:17:02;;;;;;;;;;;20.30;59.20;;;;;;5116104;28;20314;-70
2024/03/15 11:19:28;;;;;;;;;;;20.30;62.20;;;;;;5115956;28;19908;-69
2024/03/15 11:22:02;;;;;;;;;;;20.30;62.10;;;;;;5116008;28;19908;-69
2024/03/15 11:24:37;;;;;;;;;;;20.30;59.30;;;;;;5116024;28;19919;-70
2024/03/15 11:27:03;;;;;;;;;;;20.30;62.20;;;;;;5115448;28;20427;-70
2024/03/15 11:29:34;;;;;;;;;;;20.30;62.10;;;;;;5116147;28;19999;-69
2024/03/15 11:32:00;;;;;;;;;;;20.30;59.30;;;;;;5115257;28;19922;-69
2024/03/15 11:34:26;;;;;;;;;;;20.30;62.00;;;;;;5115366;28;19908;-69
2024/03/15 11:36:52;;;;;;;;;;;20.40;61.60;;;;;;5115541;28;19907;-71
2024/03/15 11:39:18;;;;;;;;;;;20.30;62.20;;;;;;5115669;28;19908;-72
2024/03/15 11:41:44;;;;;;;;;;;20.20;62.10;;;;;;5115482;28;19987;-72
2024/03/15 11:44:09;;;;;;;;;;;20.20;62.30;;;;;;5115203;28;19911;-70
2024/03/15 11:46:35;;;;;;;;;;;20.20;62.20;;;;;;5115130;28;19991;-72
2024/03/15 11:49:03;;;;;;;;;;;20.20;62.50;;;;;;5115276;28;19911;-72
2024/03/15 11:51:29;;;;;;;;;;;20.20;62.10;;;;;;5114977;28;20215;-72
2024/03/15 11:53:55;;;;;;;;;;;20.10;62.00;;;;;;5114863;28;19915;-71
2024/03/15 11:56:21;;;;;;;;;;;20.20;62.00;;;;;;5115544;28;19911;-71
2024/03/15 11:58:48;;;;;;;;;;;20.30;61.80;;;;;;5115024;28;19907;-71
2024/03/15 12:01:14;;;;;;;;;;;20.40;61.20;;;;;;5096456;28;19908;-70
2024/03/15 12:03:41;;;;;;;;;;;20.30;61.70;;;;;;5114803;28;19920;-71
2024/03/15 12:06:07;;;;;;;;;;;20.40;61.80;;;;;;5114608;28;20393;-71
2024/03/15 12:08:32;;;;;;;;;;;20.40;61.40;;;;;;5114893;28;19931;-71
2024/03/15 12:10:58;;;;;;;;;;;20.40;61.70;;;;;;5114709;28;20425;-71
2024/03/15 12:13:24;;;;;;;;;;;20.40;61.70;;;;;;5114534;28;19915;-71
2024/03/15 12:15:51;;;;;;;;;;;20.40;61.80;;;;;;5114628;28;19972;-71
2024/03/15 12:18:20;;;;;;;;;;;20.40;61.90;;;;;;5114402;28;20354;-71
2024/03/15 12:20:47;;;;;;;;;;;20.50;58.80;;;;;;5114630;28;19912;-71
2024/03/15 12:23:14;;;;;;;;;;;20.70;61.30;;;;;;5114297;28;19908;-71
2024/03/15 12:25:40;;;;;;;;;;;20.90;58.00;;;;;;5114249;28;19961;-71
2024/03/15 12:28:07;;;;;;;;;;;21.00;60.20;;;;;;5112561;28;19937;-71
2024/03/15 12:30:33;;;;;;;;;;;20.70;60.00;;;;;;5113033;28;19908;-70
2024/03/15 12:32:58;;;;;;;;;;;21.10;59.80;;;;;;5113443;28;19923;-71
2024/03/15 12:35:24;;;;;;;;;;;21.10;59.90;;;;;;5114210;28;19907;-71
2024/03/15 12:37:52;;;;;;;;;;;21.10;60.00;;;;;;5113086;28;19976;-71
2024/03/15 12:40:17;;;;;;;;;;;21.10;60.10;;;;;;5113998;28;19908;-71
2024/03/15 12:42:44;;;;;;;;;;;21.00;60.20;;;;;;5113966;28;19977;-71
2024/03/15 12:45:15;;;;;;;;;;;21.00;60.20;;;;;;5114162;28;19907;-71
2024/03/15 12:47:41;;;;;;;;;;;21.00;60.10;;;;;;5113850;28;19972;-71
2024/03/15 12:50:15;;;;;;;;;;;21.10;60.00;;;;;;5113855;28;19943;-71
2024/03/15 12:52:44;;;;;;;;;;;;;;;;;;5113954;28;19920;-71
2024/03/15 12:55:11;;;;;;;;;;;21.20;56.90;;;;;;5113909;28;19994;-71
2024/03/15 12:57:37;;;;;;;;;;;21.30;59.90;;;;;;5113609;28;20374;-71
2024/03/15 13:00:05;;;;;;;;;;;21.50;59.30;;;;;;5113843;28;19962;-71
2024/03/15 13:02:31;;;;;;;;;;;21.60;58.70;;;;;;5113343;28;20006;-71
2024/03/15 13:04:56;;;;;;;;;;;21.50;59.30;;;;;;5095342;28;19933;-71
2024/03/15 13:07:22;;;;;;;;;;;21.50;59.00;;;;;;5095140;28;19912;-71
2024/03/15 13:09:47;;;;;;;;;;;21.50;59.40;;;;;;5113361;28;19915;-71
2024/03/15 13:12:13;;;;;;;;;;;21.40;59.20;;;;;;5113401;28;19923;-71
2024/03/15 13:14:38;;;;;;;;;;;21.50;59.40;;;;;;5113379;28;19915;-71
2024/03/15 13:17:04;;;;;;;;;;;21.50;59.40;;;;;;5113300;28;19908;-71
2024/03/15 13:19:30;;;;;;;;;;;21.40;59.50;;;;;;5113328;28;19915;-71
2024/03/15 13:21:55;;;;;;;;;;;21.40;59.60;;;;;;5113849;28;19907;-71
2024/03/15 13:24:21;;;;;;;;;;;21.40;59.60;;;;;;5113297;28;19918;-71
2024/03/15 13:26:46;;;;;;;;;;;21.30;59.80;;;;;;5113142;28;19961;-72
2024/03/15 13:29:12;;;;;;;;;;;21.20;59.90;;;;;;5113190;28;19908;-71
2024/03/15 13:31:38;;;;;;;;;;;21.20;60.00;;;;;;5113065;28;20002;-71
2024/03/15 13:34:03;;;;;;;;;;;21.10;60.40;;;;;;5113130;28;19946;-71
2024/03/15 13:36:29;;;;;;;;;;;21.10;60.50;;;;;;5113076;28;19930;-71
2024/03/15 13:38:56;;;;;;;;;;;21.10;60.50;;;;;;5112103;28;19914;-70
2024/03/15 13:41:24;;;;;;;;;;;21.20;59.80;;;;;;5112936;28;20374;-71
2024/03/15 13:43:50;;;;;;;;;;;21.20;60.00;;;;;;5112915;28;19908;-71
2024/03/15 13:46:16;;;;;;;;;;;21.30;60.10;;;;;;5112740;28;19908;-71
2024/03/15 13:48:43;;;;;;;;;;;21.30;60.00;;;;;;5112715;28;19972;-71
2024/03/15 13:51:12;;;;;;;;;;;21.30;60.00;;;;;;5113197;28;19991;-71
2024/03/15 13:53:44;;;;;;;;;;;21.20;60.40;;;;;;5112634;28;19916;-71
2024/03/15 13:56:11;;;;;;;;;;;21.10;57.70;;;;;;5112689;28;20448;-71
2024/03/15 13:58:37;;;;;;;;;;;21.10;60.40;;;;;;5094271;28;19918;-71
2024/03/15 14:01:03;;;;;;;;;;;21.00;60.30;;;;;;5112663;28;19907;-71
2024/03/15 14:03:32;;;;;;;;;;;21.10;60.20;;;;;;5112344;28;19920;-71
2024/03/15 14:05:58;;;;;;;;;;;21.00;60.50;;;;;;5112420;28;20353;-70
2024/03/15 14:08:25;;;;;;;;;;;20.90;60.60;;;;;;5112560;28;19907;-70
2024/03/15 14:10:51;;;;;;;;;;;21.00;60.30;;;;;;5112766;28;19908;-71
2024/03/15 14:13:19;;;;;;;;;;;21.10;60.20;;;;;;5112703;28;20354;-71
2024/03/15 14:15:46;;;;;;;;;;;21.10;60.00;;;;;;5112444;28;19908;-70
2024/03/15 14:18:12;;;;;;;;;;;21.10;60.10;;;;;;5113041;28;20002;-70
2024/03/15 14:20:38;;;;;;;;;;;21.10;60.20;;;;;;5112438;28;19908;-71
2024/03/15 14:23:04;;;;;;;;;;;21.00;60.20;;;;;;5112450;28;20037;-71